Time;durP1;ratioP1;P1;durP2;ratioP2;P2;SDS_P1;SDS_P2;PMS_P1;PMS_P2;Temp;Humidity;BMP_temperature;BMP_pressure;BME280_temperature;BME280_humidity;BME280_pressure;Samples;Min_cycle;Max_cycle;Signal;HPM_P1;HPM_P2
2021/03/14 00:02:33;;;;;;;5.07;1.23;;;4.60;99.90;;;;;;6193609;28;20047;-78
2021/03/14 00:05:35;;;;;;;1.42;1.13;;;4.50;99.90;;;;;;6193151;28;20042;-80
2021/03/14 00:08:37;;;;;;;4.75;2.38;;;4.40;99.90;;;;;;6191290;28;20051;-80
2021/03/14 00:11:38;;;;;;;1.85;1.25;;;4.30;99.90;;;;;;6192535;28;20461;-80
2021/03/14 00:14:40;;;;;;;7.75;1.83;;;4.30;99.90;;;;;;6193599;28;20062;-79
2021/03/14 00:17:41;;;;;;;1.98;1.10;;;4.20;99.90;;;;;;6194138;28;20050;-79
2021/03/14 00:20:43;;;;;;;2.95;1.20;;;4.20;99.90;;;;;;6197265;28;20062;-79
2021/03/14 00:23:45;;;;;;;1.48;1.08;;;4.20;99.90;;;;;;6193256;28;20134;-78
2021/03/14 00:26:46;;;;;;;1.20;0.95;;;4.20;99.90;;;;;;6196972;28;20058;-79
2021/03/14 00:29:48;;;;;;;2.03;0.95;;;4.10;99.90;;;;;;6193416;28;20042;-78
2021/03/14 00:32:49;;;;;;;1.67;1.10;;;4.10;99.90;;;;;;6192200;28;20086;-81
2021/03/14 00:35:51;;;;;;;1.17;1.08;;;4.10;99.90;;;;;;6192463;28;20042;-81
2021/03/14 00:38:53;;;;;;;0.98;0.95;;;4.10;99.90;;;;;;6190383;28;20070;-80
2021/03/14 00:41:54;;;;;;;3.60;1.05;;;4.10;99.90;;;;;;6192002;28;20034;-80
2021/03/14 00:44:56;;;;;;;3.17;1.50;;;4.10;99.90;;;;;;6192716;28;20046;-79
2021/03/14 00:47:57;;;;;;;6.07;1.13;;;4.10;99.90;;;;;;6190488;28;20047;-81
2021/03/14 00:50:59;;;;;;;2.42;1.17;;;4.10;99.90;;;;;;6190744;28;20212;-79
2021/03/14 00:54:01;;;;;;;2.83;2.00;;;4.10;99.90;;;;;;6192183;28;20097;-80
2021/03/14 00:57:03;;;;;;;4.03;1.30;;;4.10;99.90;;;;;;6192530;28;20054;-78
2021/03/14 01:00:05;;;;;;;3.95;1.40;;;4.10;99.90;;;;;;6192113;28;20057;-77
2021/03/14 01:03:07;;;;;;;2.75;1.55;;;4.10;99.90;;;;;;6193572;28;20043;-78
2021/03/14 01:06:08;;;;;;;3.97;1.88;;;4.10;99.90;;;;;;6195461;28;20053;-81
2021/03/14 01:09:10;;;;;;;7.07;2.15;;;4.10;99.90;;;;;;6196319;28;20062;-81
2021/03/14 01:12:12;;;;;;;11.40;2.20;;;4.10;99.90;;;;;;6194743;28;20055;-81
2021/03/14 01:15:15;;;;;;;2.88;1.80;;;4.10;99.90;;;;;;6194414;28;20129;-81
2021/03/14 01:18:17;;;;;;;2.50;1.92;;;4.00;99.90;;;;;;6192983;28;20050;-77
2021/03/14 01:21:21;;;;;;;6.50;1.53;;;4.00;99.90;;;;;;6194631;28;20054;-80
2021/03/14 01:24:24;;;;;;;2.53;1.60;;;4.00;99.90;;;;;;6192992;28;20054;-80
2021/03/14 01:27:25;;;;;;;3.70;1.63;;;4.00;99.90;;;;;;6196296;28;20050;-81
2021/03/14 01:30:26;;;;;;;5.43;1.93;;;3.90;99.90;;;;;;6193447;28;20050;-79
2021/03/14 01:33:28;;;;;;;5.63;2.33;;;3.90;99.90;;;;;;6195247;28;20046;-79
2021/03/14 01:36:29;;;;;;;3.13;1.40;;;3.90;99.90;;;;;;6196526;28;20085;-80
2021/03/14 01:39:31;;;;;;;3.30;1.63;;;3.90;99.90;;;;;;6195184;28;20046;-81
2021/03/14 01:42:33;;;;;;;5.27;1.70;;;3.90;99.90;;;;;;6194732;28;20051;-80
2021/03/14 01:45:35;;;;;;;3.70;1.70;;;3.90;99.90;;;;;;6195864;28;20043;-80
2021/03/14 01:48:37;;;;;;;2.08;1.48;;;3.90;99.90;;;;;;6194284;28;20061;-79
2021/03/14 01:51:39;;;;;;;2.67;2.00;;;3.90;99.90;;;;;;6193750;28;20047;-80
2021/03/14 01:54:41;;;;;;;5.63;2.33;;;3.80;99.90;;;;;;6192696;28;20046;-80
2021/03/14 01:57:43;;;;;;;3.90;2.07;;;3.80;99.90;;;;;;6193966;28;20062;-80
2021/03/14 02:00:45;;;;;;;4.43;2.13;;;3.80;99.90;;;;;;6199023;28;20054;-80
2021/03/14 02:03:46;;;;;;;2.13;1.92;;;3.90;99.90;;;;;;6193437;28;20071;-81
2021/03/14 02:06:48;;;;;;;7.90;2.88;;;3.90;99.90;;;;;;6192097;28;20074;-81
2021/03/14 02:09:51;;;;;;;3.85;2.35;;;3.90;99.90;;;;;;6190734;28;20111;-82
2021/03/14 02:12:58;;;;;;;3.92;2.70;;;3.90;99.90;;;;;;6189761;28;20050;-79
2021/03/14 02:16:03;;;;;;;8.40;3.53;;;4.00;99.90;;;;;;6191457;28;20058;-80
2021/03/14 02:19:08;;;;;;;4.95;3.45;;;3.90;99.90;;;;;;6192701;28;20071;-77
2021/03/14 02:22:09;;;;;;;6.97;3.03;;;3.90;99.90;;;;;;6190720;28;20039;-78
2021/03/14 02:25:15;;;;;;;6.67;3.27;;;3.90;99.90;;;;;;6194155;28;20057;-77
2021/03/14 02:28:18;;;;;;;6.20;3.95;;;3.90;99.90;;;;;;6192561;28;20047;-78
2021/03/14 02:31:22;;;;;;;4.50;3.13;;;4.00;99.90;;;;;;6190778;28;20050;-80
2021/03/14 02:34:27;;;;;;;6.85;3.28;;;4.00;99.90;;;;;;6192031;28;20055;-81
2021/03/14 02:37:30;;;;;;;6.82;3.38;;;4.00;99.90;;;;;;6193095;28;20067;-76
2021/03/14 02:40:33;;;;;;;4.85;2.80;;;4.00;99.90;;;;;;6194367;28;20061;-78
2021/03/14 02:43:36;;;;;;;6.47;2.85;;;4.00;99.90;;;;;;6191589;28;20046;-80
2021/03/14 02:46:38;;;;;;;3.55;2.92;;;4.00;99.90;;;;;;6193263;28;20046;-78
2021/03/14 02:49:41;;;;;;;5.20;3.00;;;3.90;99.90;;;;;;6195533;28;20078;-80
2021/03/14 02:52:43;;;;;;;9.10;4.43;;;4.00;99.90;;;;;;6190903;28;20051;-80
2021/03/14 02:55:45;;;;;;;5.75;4.53;;;4.00;99.90;;;;;;6189927;28;20517;-81
2021/03/14 02:58:48;;;;;;;6.22;3.80;;;4.00;99.90;;;;;;6191810;28;20053;-80
2021/03/14 03:01:52;;;;;;;8.57;3.42;;;4.10;99.90;;;;;;6191890;28;20039;-80
2021/03/14 03:04:54;;;;;;;8.80;4.65;;;4.10;99.90;;;;;;6191999;28;20055;-80
2021/03/14 03:07:57;;;;;;;7.85;5.28;;;4.10;99.90;;;;;;6191954;28;20118;-80
2021/03/14 03:11:02;;;;;;;8.82;5.47;;;4.10;99.90;;;;;;6191558;28;20051;-80
2021/03/14 03:14:07;;;;;;;12.07;5.95;;;4.20;99.90;;;;;;6193643;28;20047;-80
2021/03/14 03:17:10;;;;;;;10.15;5.05;;;4.20;99.90;;;;;;6194900;28;20070;-80
2021/03/14 03:20:13;;;;;;;8.55;5.30;;;4.10;99.90;;;;;;6194019;28;20065;-81
2021/03/14 03:23:15;;;;;;;10.55;5.38;;;4.10;99.90;;;;;;6193449;28;20046;-79
2021/03/14 03:26:17;;;;;;;8.50;5.50;;;4.10;99.90;;;;;;6193110;28;20050;-80
2021/03/14 03:29:19;;;;;;;7.60;4.35;;;4.20;99.90;;;;;;6195951;28;20057;-80
2021/03/14 03:32:21;;;;;;;5.10;3.90;;;4.20;99.90;;;;;;6196391;28;20054;-79
2021/03/14 03:35:25;;;;;;;13.30;5.70;;;4.20;99.90;;;;;;6194649;28;20065;-80
2021/03/14 03:38:30;;;;;;;5.05;4.28;;;4.20;99.90;;;;;;6194751;28;20055;-79
2021/03/14 03:41:36;;;;;;;7.82;4.22;;;4.20;99.90;;;;;;6194234;28;20047;-78
2021/03/14 03:44:40;;;;;;;6.30;3.92;;;4.20;99.90;;;;;;6196771;28;20055;-81
2021/03/14 03:47:43;;;;;;;7.18;5.32;;;4.20;99.90;;;;;;6196439;28;20113;-79
2021/03/14 03:50:47;;;;;;;3.38;2.90;;;4.30;99.90;;;;;;6193050;28;20047;-81
2021/03/14 03:53:51;;;;;;;5.40;2.58;;;4.30;99.90;;;;;;6193064;28;20061;-79
2021/03/14 03:56:54;;;;;;;3.45;2.63;;;4.30;99.90;;;;;;6195470;28;20138;-82
2021/03/14 03:59:59;;;;;;;3.95;1.80;;;4.30;99.90;;;;;;6194856;28;20053;-80
2021/03/14 04:03:03;;;;;;;5.88;3.00;;;4.40;99.90;;;;;;6195481;28;20050;-80
2021/03/14 04:06:08;;;;;;;3.42;1.48;;;4.30;99.90;;;;;;6194567;28;20053;-79
2021/03/14 04:09:10;;;;;;;2.75;1.10;;;4.30;99.90;;;;;;6194166;28;20066;-80
2021/03/14 04:12:15;;;;;;;3.78;1.17;;;4.20;99.90;;;;;;6196492;28;20046;-79
2021/03/14 04:15:28;;;;;;;3.47;1.80;;;4.30;99.90;;;;;;6204951;28;20046;-78
2021/03/14 04:18:31;;;;;;;4.97;1.77;;;4.30;99.90;;;;;;6204907;28;20051;-79
2021/03/14 04:21:36;;;;;;;1.88;1.25;;;4.20;99.90;;;;;;6204820;28;20051;-79
2021/03/14 04:24:39;;;;;;;4.32;1.30;;;4.20;99.90;;;;;;6198154;28;20441;-82
2021/03/14 04:27:45;;;;;;;1.88;1.20;;;4.20;99.90;;;;;;6194828;28;20118;-81
2021/03/14 04:30:48;;;;;;;3.15;1.35;;;4.20;99.90;;;;;;6193276;28;20121;-80
2021/03/14 04:33:50;;;;;;;2.90;0.98;;;4.20;99.90;;;;;;6193037;28;20046;-79
2021/03/14 04:36:53;;;;;;;1.33;1.23;;;4.20;99.90;;;;;;6193449;28;20082;-79
2021/03/14 04:39:55;;;;;;;1.27;1.05;;;4.20;99.90;;;;;;6193322;28;20115;-79
2021/03/14 04:42:57;;;;;;;3.40;1.58;;;4.10;99.90;;;;;;6193451;28;20436;-80
2021/03/14 04:46:00;;;;;;;2.25;1.70;;;4.20;99.90;;;;;;6196411;28;20475;-80
2021/03/14 04:49:02;;;;;;;3.85;1.40;;;4.20;99.90;;;;;;6195689;28;20050;-79
2021/03/14 04:52:04;;;;;;;4.07;1.42;;;4.10;99.90;;;;;;6195098;28;20054;-80
2021/03/14 04:55:08;;;;;;;2.78;1.42;;;4.10;99.90;;;;;;6194162;28;20552;-80
2021/03/14 04:58:15;;;;;;;2.00;1.90;;;4.10;99.90;;;;;;6195841;28;20050;-79
2021/03/14 05:01:20;;;;;;;3.25;2.53;;;4.10;99.90;;;;;;6194699;28;20051;-77
2021/03/14 05:04:23;;;;;;;1.67;1.48;;;4.10;99.90;;;;;;6193291;28;20051;-80
2021/03/14 05:07:25;;;;;;;2.30;2.10;;;4.10;99.90;;;;;;6191671;28;20524;-80
2021/03/14 05:10:27;;;;;;;3.85;2.05;;;4.10;99.90;;;;;;6192074;28;20058;-80
2021/03/14 05:13:29;;;;;;;2.60;2.33;;;4.10;99.90;;;;;;6190891;28;20081;-79
2021/03/14 05:16:32;;;;;;;6.57;2.72;;;4.10;99.90;;;;;;6190825;28;20055;-79
2021/03/14 05:19:33;;;;;;;4.80;2.30;;;4.10;99.90;;;;;;6189165;28;20051;-80
2021/03/14 05:22:36;;;;;;;4.15;2.33;;;4.20;99.90;;;;;;6194087;28;20047;-78
2021/03/14 05:25:39;;;;;;;3.63;2.38;;;4.20;99.90;;;;;;6187342;28;20046;-76
2021/03/14 05:28:42;;;;;;;4.07;2.85;;;4.20;99.90;;;;;;6194145;28;20042;-79
2021/03/14 05:31:44;;;;;;;3.35;2.08;;;4.10;99.90;;;;;;6192602;28;20516;-78
2021/03/14 05:34:46;;;;;;;4.70;2.78;;;4.20;99.90;;;;;;6191267;28;20047;-79
2021/03/14 05:37:47;;;;;;;5.60;3.08;;;4.20;99.90;;;;;;6190413;28;20054;-79
2021/03/14 05:40:49;;;;;;;6.03;2.90;;;4.20;99.90;;;;;;6192380;28;20053;-79
2021/03/14 05:43:51;;;;;;;3.85;2.58;;;4.20;99.90;;;;;;6190479;28;20046;-78
2021/03/14 05:46:54;;;;;;;3.45;2.53;;;4.20;99.90;;;;;;6191289;28;20468;-79
2021/03/14 05:49:55;;;;;;;4.53;4.13;;;4.30;99.90;;;;;;6188415;28;20050;-77
2021/03/14 05:52:59;;;;;;;3.47;2.67;;;4.30;99.90;;;;;;6187861;28;20046;-77
2021/03/14 05:56:01;;;;;;;4.75;3.03;;;4.30;99.90;;;;;;6191268;28;20062;-76
2021/03/14 05:59:02;;;;;;;3.53;2.63;;;4.30;99.90;;;;;;6188780;28;20054;-78
2021/03/14 06:02:05;;;;;;;2.72;1.95;;;4.40;99.90;;;;;;6190464;28;20046;-78
2021/03/14 06:05:08;;;;;;;8.77;2.60;;;4.40;99.90;;;;;;6191757;28;20086;-79
2021/03/14 06:08:09;;;;;;;3.67;2.58;;;4.40;99.90;;;;;;6192235;28;20046;-78
2021/03/14 06:11:11;;;;;;;5.68;4.50;;;4.40;99.90;;;;;;6191236;28;20102;-78
2021/03/14 06:14:13;;;;;;;4.25;2.70;;;4.40;99.90;;;;;;6189638;28;20097;-79
2021/03/14 06:17:15;;;;;;;4.63;2.53;;;4.40;99.90;;;;;;6189307;28;20066;-78
2021/03/14 06:20:37;;;;;;;6.50;2.40;;;4.50;99.90;;;;;;6189791;28;20082;-79
2021/03/14 06:23:38;;;;;;;3.75;2.22;;;4.40;99.90;;;;;;6189215;28;20068;-78
2021/03/14 06:26:42;;;;;;;5.43;1.88;;;4.40;99.90;;;;;;6190581;28;20050;-79
2021/03/14 06:29:45;;;;;;;8.52;3.38;;;4.50;99.90;;;;;;6189779;28;20054;-76
2021/03/14 06:33:02;;;;;;;2.72;1.90;;;4.50;99.90;;;;;;6188092;28;20138;-77
2021/03/14 06:36:14;;;;;;;7.50;2.72;;;4.60;99.90;;;;;;6187617;28;20055;-78
2021/03/14 06:39:22;;;;;;;5.70;1.70;;;4.60;99.90;;;;;;6188284;28;20062;-75
2021/03/14 06:42:30;;;;;;;9.20;2.42;;;4.60;99.90;;;;;;6189813;28;20042;-78
2021/03/14 06:45:39;;;;;;;2.92;2.72;;;4.60;99.90;;;;;;6188975;28;20050;-77
2021/03/14 06:48:41;;;;;;;5.93;2.80;;;4.60;99.90;;;;;;6191117;28;20114;-78
2021/03/14 06:51:44;;;;;;;6.95;2.55;;;4.50;99.90;;;;;;6191950;28;20055;-78
2021/03/14 06:54:49;;;;;;;8.05;2.35;;;4.50;99.90;;;;;;6193512;28;20046;-77
2021/03/14 06:57:50;;;;;;;3.90;2.58;;;4.50;99.90;;;;;;6195829;28;20141;-78
2021/03/14 07:01:13;;;;;;;6.00;2.25;;;4.40;99.90;;;;;;6196443;28;20078;-79
2021/03/14 07:04:31;;;;;;;10.85;2.50;;;4.40;99.90;;;;;;6183371;28;20085;-77
2021/03/14 07:07:38;;;;;;;7.30;3.15;;;4.40;99.90;;;;;;6194526;28;20086;-76
2021/03/14 07:10:39;;;;;;;7.88;2.25;;;4.40;99.90;;;;;;6188563;28;20070;-77
2021/03/14 07:13:51;;;;;;;9.10;3.50;;;4.60;99.90;;;;;;6184272;28;20042;-77
2021/03/14 07:16:54;;;;;;;12.27;3.63;;;4.50;99.90;;;;;;6186476;28;20047;-77
2021/03/14 07:19:58;;;;;;;7.15;4.13;;;4.60;99.90;;;;;;6185590;28;20114;-77
2021/03/14 07:23:01;;;;;;;11.30;3.70;;;4.70;99.90;;;;;;6182515;28;20042;-77
2021/03/14 07:26:02;;;;;;;3.85;2.75;;;4.80;99.90;;;;;;6184310;28;20047;-77
2021/03/14 07:29:04;;;;;;;12.82;6.32;;;5.00;99.90;;;;;;6186457;28;20636;-78
2021/03/14 07:32:07;;;;;;;16.20;7.20;;;5.10;99.90;;;;;;6186309;28;20086;-74
2021/03/14 07:35:11;;;;;;;6.15;3.30;;;5.30;99.90;;;;;;6187292;28;20121;-78
2021/03/14 07:38:19;;;;;;;11.35;5.82;;;5.40;99.90;;;;;;6187264;28;20093;-77
2021/03/14 07:41:21;;;;;;;6.75;3.33;;;5.50;99.90;;;;;;6187995;28;20061;-78
2021/03/14 07:44:24;;;;;;;9.05;3.58;;;5.60;99.90;;;;;;6188538;28;20070;-76
2021/03/14 07:47:30;;;;;;;6.15;4.15;;;5.70;99.90;;;;;;6185929;28;20047;-77
2021/03/14 07:50:38;;;;;;;4.07;2.33;;;6.20;99.90;;;;;;6186326;28;20054;-75
2021/03/14 07:53:39;;;;;;;9.73;3.30;;;6.60;98.00;;;;;;6185788;28;20125;-77
2021/03/14 07:56:41;;;;;;;11.45;3.03;;;6.70;96.30;;;;;;6190138;28;20051;-77
2021/03/14 07:59:42;;;;;;;2.63;1.80;;;6.60;95.60;;;;;;6186865;28;20090;-77
2021/03/14 08:02:53;;;;;;;7.53;1.98;;;6.60;95.00;;;;;;6187828;28;20139;-78
2021/03/14 08:05:55;;;;;;;3.50;1.50;;;6.40;95.70;;;;;;6182859;28;20094;-77
2021/03/14 08:08:57;;;;;;;2.85;1.58;;;6.30;94.90;;;;;;6183239;28;20547;-77
2021/03/14 08:12:14;;;;;;;3.53;1.75;;;6.30;94.50;;;;;;6182585;28;20120;-77
2021/03/14 08:15:22;;;;;;;6.53;3.65;;;6.20;94.60;;;;;;6158691;28;20102;-77
2021/03/14 08:18:37;;;;;;;6.25;2.15;;;6.20;95.10;;;;;;6159255;28;20051;-77
2021/03/14 08:21:41;;;;;;;8.60;1.95;;;6.20;95.50;;;;;;6159019;28;20509;-76
2021/03/14 08:24:42;;;;;;;3.42;1.52;;;6.50;94.60;;;;;;6159541;29;20047;-77
2021/03/14 08:27:46;;;;;;;11.77;3.33;;;6.60;94.20;;;;;;6158640;28;20134;-76
2021/03/14 08:30:51;;;;;;;4.28;2.08;;;6.60;93.50;;;;;;6159393;28;20164;-77
2021/03/14 08:33:52;;;;;;;8.95;2.58;;;6.70;93.40;;;;;;6158183;28;20067;-77
2021/03/14 08:36:55;;;;;;;8.27;3.95;;;6.80;92.10;;;;;;6159997;29;20062;-77
2021/03/14 08:40:01;;;;;;;6.43;1.40;;;6.60;92.00;;;;;;6160763;28;20142;-77
2021/03/14 08:43:02;;;;;;;9.48;2.38;;;6.50;91.90;;;;;;6160946;28;20055;-77
2021/03/14 08:46:04;;;;;;;5.78;1.65;;;6.40;92.20;;;;;;6162922;28;20082;-77
2021/03/14 08:49:07;;;;;;;2.55;2.35;;;6.30;92.60;;;;;;6163861;28;20055;-78
2021/03/14 08:52:09;;;;;;;3.72;1.60;;;6.20;93.00;;;;;;6165703;29;20086;-77
2021/03/14 08:55:11;;;;;;;3.05;1.80;;;6.20;93.60;;;;;;6165471;28;20441;-78
2021/03/14 08:58:13;;;;;;;4.93;2.72;;;6.30;93.00;;;;;;6164616;28;20070;-77
2021/03/14 09:01:15;;;;;;;12.80;11.40;;;6.30;92.10;;;;;;6163447;28;20058;-77
2021/03/14 09:04:18;;;;;;;16.85;11.82;;;6.40;92.50;;;;;;6158334;29;20109;-77
2021/03/14 09:07:21;;;;;;;11.13;7.32;;;6.70;92.40;;;;;;6161412;28;20506;-77
2021/03/14 09:10:22;;;;;;;7.38;2.65;;;6.70;92.70;;;;;;6161604;28;20075;-76
2021/03/14 09:13:28;;;;;;;9.85;3.53;;;6.50;93.30;;;;;;6170413;28;20074;-78
2021/03/14 09:16:42;;;;;;;3.35;2.20;;;6.40;94.50;;;;;;6183307;28;20054;-77
2021/03/14 09:19:45;;;;;;;12.23;6.78;;;6.30;94.70;;;;;;6186865;28;20050;-77
2021/03/14 09:22:47;;;;;;;36.15;21.67;;;6.20;95.90;;;;;;6186496;28;20137;-78
2021/03/14 09:25:53;;;;;;;21.45;12.23;;;6.10;96.40;;;;;;6188246;28;20066;-76
2021/03/14 09:28:54;;;;;;;71.78;40.92;;;6.10;97.50;;;;;;6187306;28;20058;-77
2021/03/14 09:31:56;;;;;;;191.35;107.00;;;6.10;97.70;;;;;;6186108;28;20070;-77
2021/03/14 09:35:18;;;;;;;113.07;70.05;;;6.30;97.60;;;;;;6184087;28;20062;-77
2021/03/14 09:38:22;;;;;;;15.45;9.32;;;6.50;97.70;;;;;;6186098;28;20051;-77
2021/03/14 09:41:23;;;;;;;12.18;5.68;;;6.80;98.20;;;;;;6187787;28;20106;-76
2021/03/14 09:44:25;;;;;;;93.28;60.15;;;7.40;97.00;;;;;;6182935;28;20054;-76
2021/03/14 09:47:26;;;;;;;9.27;5.75;;;7.60;95.20;;;;;;6184915;28;20109;-78
2021/03/14 09:50:29;;;;;;;15.00;10.32;;;7.50;94.60;;;;;;6185058;28;20062;-77
2021/03/14 09:53:32;;;;;;;26.92;16.83;;;7.70;95.20;;;;;;6185188;28;20122;-76
2021/03/14 09:56:34;;;;;;;9.52;7.05;;;7.60;95.00;;;;;;6184199;28;20053;-77
2021/03/14 09:59:35;;;;;;;12.45;9.95;;;7.60;94.60;;;;;;6182232;28;20464;-77
2021/03/14 10:02:37;;;;;;;9.20;6.50;;;7.70;93.70;;;;;;6180709;28;20071;-76
2021/03/14 10:05:41;;;;;;;13.45;7.13;;;7.90;92.60;;;;;;6180546;28;20513;-77
2021/03/14 10:08:43;;;;;;;3.47;1.98;;;7.90;91.80;;;;;;6180395;28;20073;-76
2021/03/14 10:11:44;;;;;;;8.85;2.47;;;7.90;90.60;;;;;;6181138;28;20077;-77
2021/03/14 10:14:46;;;;;;;6.05;2.13;;;8.10;90.00;;;;;;6181689;28;20073;-77
2021/03/14 10:17:48;;;;;;;6.00;5.50;;;8.40;90.00;;;;;;6181074;28;20043;-77
2021/03/14 10:20:50;;;;;;;6.05;1.40;;;8.70;90.10;;;;;;6181583;28;20078;-76
2021/03/14 10:24:13;;;;;;;7.22;4.40;;;8.80;85.90;;;;;;6181028;28;20050;-77
2021/03/14 10:27:21;;;;;;;2.53;1.77;;;8.60;86.70;;;;;;6181044;28;20130;-77
2021/03/14 10:30:23;;;;;;;2.88;2.00;;;8.60;87.10;;;;;;6180922;28;20079;-77
2021/03/14 10:33:30;;;;;;;3.95;1.33;;;8.60;87.00;;;;;;6180715;28;20047;-76
2021/03/14 10:36:35;;;;;;;1.58;1.45;;;8.50;85.50;;;;;;6181220;28;20082;-77
2021/03/14 10:39:38;;;;;;;5.20;2.20;;;8.30;85.30;;;;;;6182353;28;20417;-77
2021/03/14 10:42:41;;;;;;;8.80;2.70;;;8.20;86.70;;;;;;6179781;28;20515;-77
2021/03/14 10:45:45;;;;;;;3.70;1.35;;;8.10;87.40;;;;;;6180629;28;20042;-77
2021/03/14 10:48:46;;;;;;;3.10;1.60;;;7.80;87.60;;;;;;6180296;28;20051;-78
2021/03/14 10:51:51;;;;;;;1.75;1.00;;;7.60;88.90;;;;;;6180333;28;20054;-77
2021/03/14 10:54:54;;;;;;;1.98;1.35;;;7.40;89.00;;;;;;6181008;28;20051;-75
2021/03/14 10:58:09;;;;;;;4.00;1.50;;;7.20;89.30;;;;;;6195146;28;20030;-78
2021/03/14 11:01:15;;;;;;;1.15;1.05;;;7.00;90.40;;;;;;6204827;28;20047;-75
2021/03/14 11:04:25;;;;;;;4.18;1.00;;;6.90;90.70;;;;;;6205325;28;20041;-76
2021/03/14 11:07:28;;;;;;;3.97;1.17;;;6.80;91.20;;;;;;6204768;28;20177;-75
2021/03/14 11:10:30;;;;;;;3.83;1.13;;;6.80;91.90;;;;;;6204621;28;20062;-74
2021/03/14 11:13:32;;;;;;;4.38;1.73;;;6.70;91.40;;;;;;6203636;28;20070;-76
2021/03/14 11:16:33;;;;;;;6.53;1.67;;;6.70;91.70;;;;;;6203894;28;20046;-78
2021/03/14 11:19:36;;;;;;;3.05;1.60;;;6.60;92.00;;;;;;6191781;28;20047;-78
2021/03/14 11:22:37;;;;;;;4.57;2.17;;;6.60;92.90;;;;;;6190701;28;20039;-78
2021/03/14 11:25:39;;;;;;;4.75;2.30;;;6.50;93.10;;;;;;6180196;28;20147;-78
2021/03/14 11:28:46;;;;;;;3.47;1.77;;;6.40;92.90;;;;;;6188144;28;20074;-78
2021/03/14 11:31:47;;;;;;;5.38;3.03;;;6.40;93.50;;;;;;6187494;28;20050;-77
2021/03/14 11:34:49;;;;;;;2.75;1.58;;;6.40;93.10;;;;;;6190792;28;20074;-78
2021/03/14 11:37:50;;;;;;;12.95;7.38;;;6.40;93.10;;;;;;6208134;28;20057;-79
2021/03/14 11:40:56;;;;;;;7.32;5.82;;;6.50;94.00;;;;;;6215947;28;20050;-78
2021/03/14 11:43:57;;;;;;;11.65;8.20;;;6.60;93.80;;;;;;6214212;28;20128;-79
2021/03/14 11:46:59;;;;;;;10.00;5.30;;;6.80;94.20;;;;;;6214328;28;20055;-77
2021/03/14 11:50:00;;;;;;;3.28;1.83;;;7.00;94.00;;;;;;6215404;28;20066;-79
2021/03/14 11:53:01;;;;;;;7.22;2.40;;;7.20;93.80;;;;;;6217790;28;20070;-79
2021/03/14 11:56:04;;;;;;;6.72;2.00;;;7.50;93.40;;;;;;6215729;28;20054;-79
2021/03/14 11:59:05;;;;;;;5.97;2.15;;;7.70;92.20;;;;;;6217058;28;20053;-77
2021/03/14 12:02:07;;;;;;;4.35;2.40;;;7.70;91.80;;;;;;6216888;28;20520;-80
2021/03/14 12:05:09;;;;;;;3.40;1.83;;;7.60;91.00;;;;;;6213281;28;20178;-77
2021/03/14 12:08:10;;;;;;;1.98;1.75;;;7.50;90.10;;;;;;6213256;28;20069;-79
2021/03/14 12:11:13;;;;;;;6.43;2.55;;;7.40;90.10;;;;;;6215277;28;20042;-77
2021/03/14 12:14:14;;;;;;;2.55;1.70;;;7.30;91.20;;;;;;6199091;28;20047;-79
2021/03/14 12:17:16;;;;;;;2.55;2.35;;;7.10;91.60;;;;;;6192889;28;20051;-79
2021/03/14 12:20:17;;;;;;;2.83;1.60;;;7.10;92.30;;;;;;6192120;28;20058;-78
2021/03/14 12:23:19;;;;;;;3.72;2.15;;;7.00;92.80;;;;;;6186770;28;20074;-78
2021/03/14 12:26:22;;;;;;;1.52;1.30;;;6.90;93.10;;;;;;6184997;28;20046;-80
2021/03/14 12:29:23;;;;;;;2.47;1.48;;;6.90;93.30;;;;;;6192103;28;20127;-78
2021/03/14 12:32:24;;;;;;;4.35;1.60;;;6.80;93.90;;;;;;6189468;28;20162;-77
2021/03/14 12:35:26;;;;;;;2.22;1.40;;;6.70;93.70;;;;;;6191496;28;20073;-79
2021/03/14 12:38:27;;;;;;;3.28;1.23;;;6.70;94.30;;;;;;6194224;28;20050;-78
2021/03/14 12:41:32;;;;;;;31.13;23.50;;;6.60;94.30;;;;;;6197765;28;20074;-78
2021/03/14 12:44:34;;;;;;;2.70;1.58;;;6.50;94.90;;;;;;6198294;28;20115;-79
2021/03/14 12:47:35;;;;;;;1.48;1.35;;;6.50;95.30;;;;;;6189052;28;20058;-77
2021/03/14 12:50:37;;;;;;;2.00;1.38;;;6.60;95.00;;;;;;6192543;28;20085;-79
2021/03/14 12:53:38;;;;;;;1.23;1.13;;;6.50;94.60;;;;;;6196213;28;20059;-78
2021/03/14 12:56:41;;;;;;;3.95;1.10;;;6.40;95.60;;;;;;6193449;28;20078;-76
2021/03/14 12:59:42;;;;;;;5.45;1.42;;;6.40;95.70;;;;;;6191732;28;20166;-79
2021/03/14 13:02:43;;;;;;;1.35;1.25;;;6.20;96.10;;;;;;6194116;28;20578;-79
2021/03/14 13:05:45;;;;;;;1.58;1.45;;;6.10;97.30;;;;;;6191378;28;20047;-79
2021/03/14 13:08:46;;;;;;;1.05;0.93;;;6.00;98.20;;;;;;6189926;28;20050;-78
2021/03/14 13:11:48;;;;;;;1.60;1.45;;;5.90;99.10;;;;;;6189475;28;20134;-79
2021/03/14 13:14:50;;;;;;;4.15;2.38;;;5.90;99.70;;;;;;6189808;28;20509;-78
2021/03/14 13:17:51;;;;;;;2.22;1.50;;;5.80;99.90;;;;;;6190114;28;20050;-77
2021/03/14 13:20:53;;;;;;;1.90;1.40;;;5.80;99.90;;;;;;6191555;28;20050;-80
2021/03/14 13:23:54;;;;;;;2.40;2.05;;;5.80;99.90;;;;;;6191033;28;20046;-80
2021/03/14 13:26:56;;;;;;;2.03;1.58;;;5.80;99.90;;;;;;6186070;28;20039;-80
2021/03/14 13:29:57;;;;;;;4.50;1.50;;;5.70;99.90;;;;;;6188306;28;20054;-79
2021/03/14 13:32:59;;;;;;;3.28;1.80;;;5.80;99.90;;;;;;6191215;28;20055;-78
2021/03/14 13:36:00;;;;;;;2.92;1.65;;;5.80;99.90;;;;;;6191901;28;20050;-79
2021/03/14 13:39:02;;;;;;;2.92;1.75;;;5.80;99.90;;;;;;6191526;28;20049;-79
2021/03/14 13:42:06;;;;;;;4.88;2.10;;;5.90;99.90;;;;;;6192765;28;20054;-79
2021/03/14 13:45:08;;;;;;;3.35;2.33;;;5.90;99.90;;;;;;6192526;28;20078;-78
2021/03/14 13:48:10;;;;;;;2.15;1.80;;;5.90;99.90;;;;;;6192583;28;20081;-78
2021/03/14 13:51:12;;;;;;;5.07;2.95;;;5.90;99.90;;;;;;6193974;28;20038;-77
2021/03/14 13:54:13;;;;;;;3.75;2.33;;;5.90;99.90;;;;;;6196819;28;20074;-78
2021/03/14 13:57:15;;;;;;;5.43;1.98;;;6.00;99.90;;;;;;6188681;28;20066;-79
2021/03/14 14:00:19;;;;;;;3.92;3.15;;;6.00;99.90;;;;;;6167150;28;20109;-77
2021/03/14 14:06:54;;;;;;;4.65;2.20;;;6.20;99.90;;;;;;6145166;28;20055;-78
2021/03/14 14:09:55;;;;;;;2.65;1.50;;;6.20;99.90;;;;;;6165356;28;20162;-80
2021/03/14 14:13:00;;;;;;;1.48;1.35;;;6.20;99.90;;;;;;6167642;29;20059;-80
2021/03/14 14:16:02;;;;;;;4.60;2.97;;;6.20;99.90;;;;;;6167498;28;20089;-79
2021/03/14 14:19:04;;;;;;;7.88;2.00;;;6.10;99.90;;;;;;6165097;28;20048;-80
2021/03/14 14:22:06;;;;;;;4.30;2.00;;;6.10;99.90;;;;;;6166298;28;20110;-79
2021/03/14 14:25:09;;;;;;;3.13;2.47;;;6.00;99.90;;;;;;6167939;28;20105;-78
2021/03/14 14:28:12;;;;;;;2.95;2.00;;;6.00;99.90;;;;;;6166212;28;20047;-77
2021/03/14 14:31:14;;;;;;;3.13;1.90;;;6.00;99.90;;;;;;6167160;28;20075;-78
2021/03/14 14:34:15;;;;;;;5.68;3.17;;;6.00;99.90;;;;;;6167946;28;20095;-79
2021/03/14 14:37:16;;;;;;;3.45;2.55;;;6.00;99.90;;;;;;6168160;28;20047;-80
2021/03/14 14:40:20;;;;;;;4.68;2.40;;;6.00;99.90;;;;;;6167879;29;20058;-77
2021/03/14 14:43:22;;;;;;;3.30;2.88;;;6.00;99.90;;;;;;6168179;28;20039;-79
2021/03/14 14:46:23;;;;;;;4.53;2.20;;;6.00;99.90;;;;;;6180682;28;20050;-79
2021/03/14 14:49:25;;;;;;;3.58;2.88;;;6.00;99.90;;;;;;6191933;28;20053;-79
2021/03/14 14:52:26;;;;;;;3.72;2.50;;;6.10;99.90;;;;;;6192175;28;20433;-78
2021/03/14 14:55:27;;;;;;;6.05;2.75;;;6.40;99.90;;;;;;6168891;28;20043;-79
2021/03/14 14:58:30;;;;;;;4.60;3.22;;;6.60;99.90;;;;;;6166320;28;20055;-77
2021/03/14 15:01:32;;;;;;;4.55;3.13;;;6.70;99.90;;;;;;6170054;28;20043;-78
2021/03/14 15:04:33;;;;;;;7.00;2.67;;;7.00;99.90;;;;;;6190204;28;20053;-78
2021/03/14 15:07:35;;;;;;;3.53;2.85;;;7.20;99.90;;;;;;6201165;23;20057;-79
2021/03/14 15:10:37;;;;;;;2.55;2.13;;;7.40;99.90;;;;;;6179075;28;20063;-79
2021/03/14 15:13:39;;;;;;;2.83;2.38;;;7.60;99.90;;;;;;6180009;28;20085;-79
2021/03/14 15:16:41;;;;;;;3.58;3.28;;;7.70;99.90;;;;;;6179890;28;20431;-80
2021/03/14 15:19:42;;;;;;;4.53;3.40;;;8.00;99.90;;;;;;6179425;28;20568;-79
2021/03/14 15:22:44;;;;;;;6.30;3.70;;;8.30;99.90;;;;;;6179345;28;20047;-79
2021/03/14 15:25:45;;;;;;;2.60;2.08;;;8.40;99.90;;;;;;6179692;28;20668;-79
2021/03/14 15:28:47;;;;;;;3.15;2.50;;;8.20;99.40;;;;;;6160778;28;20532;-79
2021/03/14 15:31:48;;;;;;;3.15;2.60;;;8.00;98.20;;;;;;6175682;28;20567;-79
2021/03/14 15:34:50;;;;;;;3.75;2.85;;;7.80;97.90;;;;;;6179201;28;20141;-80
2021/03/14 15:37:51;;;;;;;4.80;3.15;;;7.50;98.40;;;;;;6179532;28;20173;-80
2021/03/14 15:40:53;;;;;;;11.15;3.78;;;7.40;98.80;;;;;;6179238;28;20489;-79
2021/03/14 15:43:55;;;;;;;6.50;2.58;;;7.30;99.50;;;;;;6178715;28;20042;-79
2021/03/14 15:46:57;;;;;;;4.95;3.00;;;7.20;99.70;;;;;;6162518;28;20055;-80
2021/03/14 15:49:58;;;;;;;4.45;3.05;;;7.20;99.90;;;;;;6154398;28;20078;-79
2021/03/14 15:53:00;;;;;;;7.50;3.22;;;7.20;99.70;;;;;;6155941;28;20066;-81
2021/03/14 15:56:01;;;;;;;4.03;2.75;;;7.20;99.70;;;;;;6155525;29;20186;-80
2021/03/14 15:59:03;;;;;;;3.80;3.05;;;7.10;99.80;;;;;;6156018;28;20658;-79
2021/03/14 16:02:05;;;;;;;2.97;2.30;;;7.10;99.70;;;;;;6156754;28;20577;-80
2021/03/14 16:05:07;;;;;;;4.70;2.67;;;7.20;99.60;;;;;;6155651;28;20135;-81
2021/03/14 16:08:09;;;;;;;5.38;2.47;;;7.30;98.80;;;;;;6153715;28;20083;-78